sensor_id;sensor_type;location;lat;lon;timestamp;pressure;altitude;pressure_sealevel;temperature;humidity
23619;BME280;18207;32.078;34.818;2022-12-29T00:01:19;102045.25;;;20.95;44.68
23619;BME280;18207;32.078;34.818;2022-12-29T00:03:49;102046.91;;;20.96;44.66
23619;BME280;18207;32.078;34.818;2022-12-29T00:06:21;102044.94;;;20.97;44.39
23619;BME280;18207;32.078;34.818;2022-12-29T00:08:52;102048.03;;;20.95;44.84
23619;BME280;18207;32.078;34.818;2022-12-29T00:11:24;102044.94;;;20.97;44.51
23619;BME280;18207;32.078;34.818;2022-12-29T00:13:55;102046.91;;;20.96;44.99
23619;BME280;18207;32.078;34.818;2022-12-29T00:16:46;102050.84;;;20.95;44.56
23619;BME280;18207;32.078;34.818;2022-12-29T00:19:16;102048.03;;;20.95;44.83
23619;BME280;18207;32.078;34.818;2022-12-29T00:22:08;102038.00;;;20.94;44.91
23619;BME280;18207;32.078;34.818;2022-12-29T00:24:56;102035.81;;;20.91;44.75
23619;BME280;18207;32.078;34.818;2022-12-29T00:27:44;102033.94;;;20.87;44.39
23619;BME280;18207;32.078;34.818;2022-12-29T00:30:35;102027.59;;;20.81;44.50
23619;BME280;18207;32.078;34.818;2022-12-29T00:33:28;102036.06;;;20.76;44.91
23619;BME280;18207;32.078;34.818;2022-12-29T00:36:19;102034.72;;;20.74;44.98
23619;BME280;18207;32.078;34.818;2022-12-29T00:39:00;102028.06;;;20.70;45.03
23619;BME280;18207;32.078;34.818;2022-12-29T00:41:48;102027.25;;;20.69;44.78
23619;BME280;18207;32.078;34.818;2022-12-29T00:44:35;102030.03;;;20.69;44.58
23619;BME280;18207;32.078;34.818;2022-12-29T00:47:05;102022.47;;;20.70;44.64
23619;BME280;18207;32.078;34.818;2022-12-29T00:49:35;102029.72;;;20.71;44.49
23619;BME280;18207;32.078;34.818;2022-12-29T00:52:06;102034.19;;;20.72;44.68
23619;BME280;18207;32.078;34.818;2022-12-29T00:54:40;102032.19;;;20.72;45.08
23619;BME280;18207;32.078;34.818;2022-12-29T00:57:13;102025.47;;;20.73;44.93
23619;BME280;18207;32.078;34.818;2022-12-29T00:59:44;102031.06;;;20.73;44.64
23619;BME280;18207;32.078;34.818;2022-12-29T01:02:15;102032.19;;;20.72;44.91
23619;BME280;18207;32.078;34.818;2022-12-29T01:04:45;102027.75;;;20.71;45.04
23619;BME280;18207;32.078;34.818;2022-12-29T01:07:16;102031.38;;;20.72;44.91
23619;BME280;18207;32.078;34.818;2022-12-29T01:09:48;102028.88;;;20.70;44.53
23619;BME280;18207;32.078;34.818;2022-12-29T01:12:36;102027.25;;;20.69;44.79
23619;BME280;18207;32.078;34.818;2022-12-29T01:15:14;102016.06;;;20.69;44.99
23619;BME280;18207;32.078;34.818;2022-12-29T01:17:45;102018.03;;;20.69;44.91
23619;BME280;18207;32.078;34.818;2022-12-29T01:20:15;102013.56;;;20.68;45.04
23619;BME280;18207;32.078;34.818;2022-12-29T01:22:44;102016.34;;;20.68;44.90
23619;BME280;18207;32.078;34.818;2022-12-29T01:25:17;102016.34;;;20.68;44.83
23619;BME280;18207;32.078;34.818;2022-12-29T01:27:47;102016.69;;;20.66;45.01
23619;BME280;18207;32.078;34.818;2022-12-29T01:30:18;102010.25;;;20.66;44.95
23619;BME280;18207;32.078;34.818;2022-12-29T01:32:47;102012.53;;;20.64;45.11
23619;BME280;18207;32.078;34.818;2022-12-29T01:35:17;102010.56;;;20.64;44.60
23619;BME280;18207;32.078;34.818;2022-12-29T01:37:48;101995.78;;;20.64;45.08
23619;BME280;18207;32.078;34.818;2022-12-29T01:40:19;101994.94;;;20.63;44.58
23619;BME280;18207;32.078;34.818;2022-12-29T01:42:49;101999.72;;;20.63;44.98
23619;BME280;18207;32.078;34.818;2022-12-29T01:45:20;101997.72;;;20.63;44.74
23619;BME280;18207;32.078;34.818;2022-12-29T01:47:54;101993.81;;;20.64;44.51
23619;BME280;18207;32.078;34.818;2022-12-29T01:50:31;101996.59;;;20.64;44.57
23619;BME280;18207;32.078;34.818;2022-12-29T01:53:07;101998.56;;;20.64;44.92
23619;BME280;18207;32.078;34.818;2022-12-29T01:55:48;101994.94;;;20.63;44.82
23619;BME280;18207;32.078;34.818;2022-12-29T01:58:23;101992.97;;;20.64;45.08
23619;BME280;18207;32.078;34.818;2022-12-29T02:00:55;101988.53;;;20.63;45.22
23619;BME280;18207;32.078;34.818;2022-12-29T02:03:26;101989.34;;;20.63;45.06
23619;BME280;18207;32.078;34.818;2022-12-29T02:06:04;101994.94;;;20.63;44.96
23619;BME280;18207;32.078;34.818;2022-12-29T02:08:37;101982.09;;;20.63;44.90
23619;BME280;18207;32.078;34.818;2022-12-29T02:11:11;101979.63;;;20.61;45.05
23619;BME280;18207;32.078;34.818;2022-12-29T02:13:41;101974.84;;;20.62;44.80
23619;BME280;18207;32.078;34.818;2022-12-29T02:16:38;101981.59;;;20.61;45.10
23619;BME280;18207;32.078;34.818;2022-12-29T02:20:04;101980.22;;;20.58;44.74
23619;BME280;18207;32.078;34.818;2022-12-29T02:22:59;101982.50;;;20.56;45.03
23619;BME280;18207;32.078;34.818;2022-12-29T02:29:38;101978.34;;;20.54;44.68
23619;BME280;18207;32.078;34.818;2022-12-29T02:32:18;101978.66;;;20.52;45.14
23619;BME280;18207;32.078;34.818;2022-12-29T02:35:04;101974.75;;;20.53;44.89
23619;BME280;18207;32.078;34.818;2022-12-29T02:37:43;101977.81;;;20.52;44.99
23619;BME280;18207;32.078;34.818;2022-12-29T02:40:27;101970.28;;;20.52;44.56
23619;BME280;18207;32.078;34.818;2022-12-29T02:43:11;101975.03;;;20.52;44.52
23619;BME280;18207;32.078;34.818;2022-12-29T02:45:53;101970.59;;;20.51;44.60
23619;BME280;18207;32.078;34.818;2022-12-29T02:48:36;101972.56;;;20.50;44.69
23619;BME280;18207;32.078;34.818;2022-12-29T02:51:14;101972.03;;;20.48;44.68
23619;BME280;18207;32.078;34.818;2022-12-29T02:53:49;101972.88;;;20.49;44.78
23619;BME280;18207;32.078;34.818;2022-12-29T02:56:36;101981.53;;;20.47;44.62
23619;BME280;18207;32.078;34.818;2022-12-29T02:59:07;101973.16;;;20.47;44.73
23619;BME280;18207;32.078;34.818;2022-12-29T03:02:00;101974.28;;;20.46;44.53
23619;BME280;18207;32.078;34.818;2022-12-29T03:05:15;101975.72;;;20.44;44.91
23619;BME280;18207;32.078;34.818;2022-12-29T03:07:57;101976.06;;;20.42;44.73
23619;BME280;18207;32.078;34.818;2022-12-29T03:10:48;101976.06;;;20.42;44.60
23619;BME280;18207;32.078;34.818;2022-12-29T03:13:28;101972.72;;;20.40;44.77
23619;BME280;18207;32.078;34.818;2022-12-29T03:16:24;101972.72;;;20.40;44.58
23619;BME280;18207;32.078;34.818;2022-12-29T03:19:06;101977.50;;;20.40;44.94
23619;BME280;18207;32.078;34.818;2022-12-29T03:21:44;101974.69;;;20.40;44.96
23619;BME280;18207;32.078;34.818;2022-12-29T03:24:38;101977.78;;;20.38;44.71
23619;BME280;18207;32.078;34.818;2022-12-29T03:27:14;101974.16;;;20.38;44.93
23619;BME280;18207;32.078;34.818;2022-12-29T03:29:52;101980.56;;;20.38;44.67
23619;BME280;18207;32.078;34.818;2022-12-29T03:32:27;101982.53;;;20.38;44.57
23619;BME280;18207;32.078;34.818;2022-12-29T03:34:59;101979.75;;;20.38;44.71
23619;BME280;18207;32.078;34.818;2022-12-29T03:37:37;101981.69;;;20.37;45.16
23619;BME280;18207;32.078;34.818;2022-12-29T03:40:10;101975.31;;;20.37;45.13
23619;BME280;18207;32.078;34.818;2022-12-29T03:42:41;101984.00;;;20.35;44.86
23619;BME280;18207;32.078;34.818;2022-12-29T03:45:13;101978.69;;;20.34;44.89
23619;BME280;18207;32.078;34.818;2022-12-29T03:47:45;101979.81;;;20.33;45.02
23619;BME280;18207;32.078;34.818;2022-12-29T03:50:15;101987.38;;;20.32;44.65
23619;BME280;18207;32.078;34.818;2022-12-29T03:52:48;101983.75;;;20.32;44.72
23619;BME280;18207;32.078;34.818;2022-12-29T03:55:18;101988.50;;;20.31;44.83
23619;BME280;18207;32.078;34.818;2022-12-29T03:57:48;101987.69;;;20.31;44.62
23619;BME280;18207;32.078;34.818;2022-12-29T04:00:18;101990.50;;;20.31;44.46
23619;BME280;18207;32.078;34.818;2022-12-29T04:02:49;101987.16;;;20.29;45.16
23619;BME280;18207;32.078;34.818;2022-12-29T04:05:19;101995.81;;;20.27;44.72
23619;BME280;18207;32.078;34.818;2022-12-29T04:07:50;101996.97;;;20.26;45.09
23619;BME280;18207;32.078;34.818;2022-12-29T04:10:20;101989.75;;;20.25;45.00
23619;BME280;18207;32.078;34.818;2022-12-29T04:12:50;102000.06;;;20.25;44.59
23619;BME280;18207;32.078;34.818;2022-12-29T04:15:20;102000.06;;;20.25;44.91
23619;BME280;18207;32.078;34.818;2022-12-29T04:17:52;101994.78;;;20.23;44.92
23619;BME280;18207;32.078;34.818;2022-12-29T04:20:22;101998.41;;;20.24;45.00
23619;BME280;18207;32.078;34.818;2022-12-29T04:23:11;101998.72;;;20.22;44.70
23619;BME280;18207;32.078;34.818;2022-12-29T04:25:45;102003.44;;;20.22;44.97
23619;BME280;18207;32.078;34.818;2022-12-29T04:28:16;102009.03;;;20.22;44.55
23619;BME280;18207;32.078;34.818;2022-12-29T04:30:47;102011.00;;;20.21;45.10
23619;BME280;18207;32.078;34.818;2022-12-29T04:33:18;102012.97;;;20.21;44.55
23619;BME280;18207;32.078;34.818;2022-12-29T04:35:49;102008.22;;;20.21;45.05
23619;BME280;18207;32.078;34.818;2022-12-29T04:38:24;102012.97;;;20.21;44.63
23619;BME280;18207;32.078;34.818;2022-12-29T04:43:25;102016.59;;;20.21;44.97
23619;BME280;18207;32.078;34.818;2022-12-29T04:45:55;102006.56;;;20.20;45.00
23619;BME280;18207;32.078;34.818;2022-12-29T04:48:26;102014.94;;;20.20;45.10
23619;BME280;18207;32.078;34.818;2022-12-29T04:50:56;102013.25;;;20.19;44.69
23619;BME280;18207;32.078;34.818;2022-12-29T04:53:28;102016.91;;;20.20;45.02
23619;BME280;18207;32.078;34.818;2022-12-29T04:55:58;102019.97;;;20.18;44.95
23619;BME280;18207;32.078;34.818;2022-12-29T04:58:28;102021.09;;;20.17;44.92
23619;BME280;18207;32.078;34.818;2022-12-29T05:00:58;102023.88;;;20.17;44.80
23619;BME280;18207;32.078;34.818;2022-12-29T05:03:29;102016.69;;;20.16;44.61
23619;BME280;18207;32.078;34.818;2022-12-29T05:05:59;102016.97;;;20.15;44.71
23619;BME280;18207;32.078;34.818;2022-12-29T05:08:32;102015.84;;;20.16;44.90
23619;BME280;18207;32.078;34.818;2022-12-29T05:11:02;102024.53;;;20.14;45.08
23619;BME280;18207;32.078;34.818;2022-12-29T05:13:33;102024.53;;;20.14;44.68
23619;BME280;18207;32.078;34.818;2022-12-29T05:16:04;102026.47;;;20.14;45.12
23619;BME280;18207;32.078;34.818;2022-12-29T05:18:34;102027.31;;;20.14;45.27
23619;BME280;18207;32.078;34.818;2022-12-29T05:21:05;102021.72;;;20.14;44.72
23619;BME280;18207;32.078;34.818;2022-12-29T05:23:37;102023.38;;;20.15;45.28
23619;BME280;18207;32.078;34.818;2022-12-29T05:26:06;102025.88;;;20.17;45.04
23619;BME280;18207;32.078;34.818;2022-12-29T05:28:37;102023.88;;;20.17;44.96
23619;BME280;18207;32.078;34.818;2022-12-29T05:31:06;102024.44;;;20.19;44.93
23619;BME280;18207;32.078;34.818;2022-12-29T05:33:37;102022.47;;;20.20;45.35
23619;BME280;18207;32.078;34.818;2022-12-29T05:36:09;102023.84;;;20.22;44.76
23619;BME280;18207;32.078;34.818;2022-12-29T05:38:42;102026.31;;;20.24;45.38
23619;BME280;18207;32.078;34.818;2022-12-29T05:41:13;102025.72;;;20.27;45.20
23619;BME280;18207;32.078;34.818;2022-12-29T05:43:44;102024.59;;;20.28;44.85
23619;BME280;18207;32.078;34.818;2022-12-29T05:46:14;102029.56;;;20.31;45.11
23619;BME280;18207;32.078;34.818;2022-12-29T05:48:45;102028.13;;;20.33;45.52
23619;BME280;18207;32.078;34.818;2022-12-29T05:51:15;102028.34;;;20.37;45.26
23619;BME280;18207;32.078;34.818;2022-12-29T05:53:47;102022.44;;;20.38;45.34
23619;BME280;18207;32.078;34.818;2022-12-29T05:56:17;102036.94;;;20.40;45.47
23619;BME280;18207;32.078;34.818;2022-12-29T05:58:47;102020.72;;;20.42;45.54
23619;BME280;18207;32.078;34.818;2022-12-29T06:01:17;102024.88;;;20.45;45.10
23619;BME280;18207;32.078;34.818;2022-12-29T06:03:48;102028.19;;;20.47;45.11
23619;BME280;18207;32.078;34.818;2022-12-29T06:06:18;102028.41;;;20.50;45.10
23619;BME280;18207;32.078;34.818;2022-12-29T06:08:50;102031.72;;;20.52;45.35
23619;BME280;18207;32.078;34.818;2022-12-29T06:11:20;102037.53;;;20.56;45.64
23619;BME280;18207;32.078;34.818;2022-12-29T06:13:51;102036.94;;;20.59;45.09
23619;BME280;18207;32.078;34.818;2022-12-29T06:16:21;102033.75;;;20.65;45.79
23619;BME280;18207;32.078;34.818;2022-12-29T06:18:51;102049.19;;;20.76;45.87
23619;BME280;18207;32.078;34.818;2022-12-29T06:21:21;102042.25;;;20.92;45.73
23619;BME280;18207;32.078;34.818;2022-12-29T06:23:53;102042.41;;;21.14;46.10
23619;BME280;18207;32.078;34.818;2022-12-29T06:26:23;102048.41;;;21.34;46.49
23619;BME280;18207;32.078;34.818;2022-12-29T06:28:53;102035.09;;;21.58;46.91
23619;BME280;18207;32.078;34.818;2022-12-29T06:31:23;102039.81;;;21.84;46.85
23619;BME280;18207;32.078;34.818;2022-12-29T06:33:53;102037.81;;;22.12;46.70
23619;BME280;18207;32.078;34.818;2022-12-29T06:36:24;102031.00;;;22.40;47.14
23619;BME280;18207;32.078;34.818;2022-12-29T06:38:55;102035.06;;;22.69;47.14
23619;BME280;18207;32.078;34.818;2022-12-29T06:41:26;102034.56;;;22.97;46.91
23619;BME280;18207;32.078;34.818;2022-12-29T06:43:59;102031.31;;;23.26;47.41
23619;BME280;18207;32.078;34.818;2022-12-29T06:46:29;102032.75;;;23.53;47.12
23619;BME280;18207;32.078;34.818;2022-12-29T06:48:59;102033.19;;;23.77;46.70
23619;BME280;18207;32.078;34.818;2022-12-29T06:51:29;102039.00;;;23.98;46.71
23619;BME280;18207;32.078;34.818;2022-12-29T06:54:01;102027.78;;;24.15;46.72
23619;BME280;18207;32.078;34.818;2022-12-29T06:56:31;102032.44;;;24.36;46.81
23619;BME280;18207;32.078;34.818;2022-12-29T06:59:01;102035.94;;;24.58;47.03
23619;BME280;18207;32.078;34.818;2022-12-29T07:01:31;102040.22;;;24.81;46.85
23619;BME280;18207;32.078;34.818;2022-12-29T07:04:04;102039.34;;;25.06;46.77
23619;BME280;18207;32.078;34.818;2022-12-29T07:06:35;102039.66;;;25.30;46.68
23619;BME280;18207;32.078;34.818;2022-12-29T07:09:07;102034.56;;;25.52;46.64
23619;BME280;18207;32.078;34.818;2022-12-29T07:11:38;102033.47;;;25.74;46.38
23619;BME280;18207;32.078;34.818;2022-12-29T07:14:09;102030.56;;;25.91;46.11
23619;BME280;18207;32.078;34.818;2022-12-29T07:16:40;102025.31;;;26.09;46.17
23619;BME280;18207;32.078;34.818;2022-12-29T07:19:10;102030.50;;;26.28;45.79
23619;BME280;18207;32.078;34.818;2022-12-29T07:21:40;102027.22;;;26.46;45.84
23619;BME280;18207;32.078;34.818;2022-12-29T07:24:15;102023.22;;;26.68;46.09
23619;BME280;18207;32.078;34.818;2022-12-29T07:26:45;102021.53;;;26.87;45.87
23619;BME280;18207;32.078;34.818;2022-12-29T07:29:15;102022.78;;;27.10;45.68
23619;BME280;18207;32.078;34.818;2022-12-29T07:31:45;102023.19;;;27.32;45.50
23619;BME280;18207;32.078;34.818;2022-12-29T07:34:15;102018.25;;;27.53;45.45
23619;BME280;18207;32.078;34.818;2022-12-29T07:36:45;102016.06;;;27.71;45.28
23619;BME280;18207;32.078;34.818;2022-12-29T07:39:17;102018.31;;;27.89;45.05
23619;BME280;18207;32.078;34.818;2022-12-29T07:41:47;102018.75;;;28.03;45.01
23619;BME280;18207;32.078;34.818;2022-12-29T07:44:18;102014.72;;;28.16;44.75
23619;BME280;18207;32.078;34.818;2022-12-29T07:46:48;102011.16;;;28.31;44.53
23619;BME280;18207;32.078;34.818;2022-12-29T07:49:23;102004.50;;;28.51;44.19
23619;BME280;18207;32.078;34.818;2022-12-29T07:51:54;102004.31;;;28.71;44.12
23619;BME280;18207;32.078;34.818;2022-12-29T07:54:25;102005.75;;;28.92;44.15
23619;BME280;18207;32.078;34.818;2022-12-29T07:56:55;101999.03;;;29.12;44.05
23619;BME280;18207;32.078;34.818;2022-12-29T07:59:28;101999.59;;;29.33;43.69
23619;BME280;18207;32.078;34.818;2022-12-29T08:01:58;101997.81;;;29.56;43.88
23619;BME280;18207;32.078;34.818;2022-12-29T08:04:29;101998.41;;;29.80;43.25
23619;BME280;18207;32.078;34.818;2022-12-29T08:06:59;102000.66;;;30.06;43.22
23619;BME280;18207;32.078;34.818;2022-12-29T08:09:32;101989.84;;;30.30;43.31
23619;BME280;18207;32.078;34.818;2022-12-29T08:12:02;101987.97;;;30.53;43.41
23619;BME280;18207;32.078;34.818;2022-12-29T08:14:33;101984.00;;;30.76;42.78
23619;BME280;18207;32.078;34.818;2022-12-29T08:17:03;101984.16;;;31.02;42.76
23619;BME280;18207;32.078;34.818;2022-12-29T08:19:33;101987.44;;;31.27;42.83
23619;BME280;18207;32.078;34.818;2022-12-29T08:22:04;101977.75;;;31.53;42.99
23619;BME280;18207;32.078;34.818;2022-12-29T08:24:36;101979.44;;;31.80;42.45
23619;BME280;18207;32.078;34.818;2022-12-29T08:27:07;101977.03;;;32.08;42.44
23619;BME280;18207;32.078;34.818;2022-12-29T08:29:47;101967.31;;;32.38;42.56
23619;BME280;18207;32.078;34.818;2022-12-29T08:32:17;101968.94;;;32.69;42.95
23619;BME280;18207;32.078;34.818;2022-12-29T08:34:47;101969.25;;;33.00;42.43
23619;BME280;18207;32.078;34.818;2022-12-29T08:37:18;101963.94;;;33.31;42.81
23619;BME280;18207;32.078;34.818;2022-12-29T08:39:59;101961.38;;;33.66;42.25
23619;BME280;18207;32.078;34.818;2022-12-29T08:42:32;101945.72;;;33.97;41.94
23619;BME280;18207;32.078;34.818;2022-12-29T08:45:02;101938.56;;;34.27;42.10
23619;BME280;18207;32.078;34.818;2022-12-29T08:47:32;101947.22;;;34.48;40.80
23619;BME280;18207;32.078;34.818;2022-12-29T08:50:04;101937.84;;;34.54;40.54
23619;BME280;18207;32.078;34.818;2022-12-29T08:52:34;101939.06;;;34.50;39.54
23619;BME280;18207;32.078;34.818;2022-12-29T08:55:07;101934.94;;;34.37;38.62
23619;BME280;18207;32.078;34.818;2022-12-29T08:57:37;101928.69;;;34.17;38.39
23619;BME280;18207;32.078;34.818;2022-12-29T09:00:10;101928.16;;;33.91;37.78
23619;BME280;18207;32.078;34.818;2022-12-29T09:02:40;101929.22;;;33.69;38.04
23619;BME280;18207;32.078;34.818;2022-12-29T09:05:10;101922.91;;;33.46;37.04
23619;BME280;18207;32.078;34.818;2022-12-29T09:07:40;101922.31;;;33.23;37.43
23619;BME280;18207;32.078;34.818;2022-12-29T09:10:12;101924.94;;;33.03;37.18
23619;BME280;18207;32.078;34.818;2022-12-29T09:12:42;101915.75;;;32.80;36.54
23619;BME280;18207;32.078;34.818;2022-12-29T09:15:13;101916.25;;;32.56;36.61
23619;BME280;18207;32.078;34.818;2022-12-29T09:17:43;101909.47;;;32.31;36.59
23619;BME280;18207;32.078;34.818;2022-12-29T09:20:16;101916.00;;;32.06;36.37
23619;BME280;18207;32.078;34.818;2022-12-29T09:22:47;101910.41;;;31.83;35.92
23619;BME280;18207;32.078;34.818;2022-12-29T09:25:19;101912.94;;;31.62;35.87
23619;BME280;18207;32.078;34.818;2022-12-29T09:27:53;101907.72;;;31.42;35.67
23619;BME280;18207;32.078;34.818;2022-12-29T09:30:23;101904.16;;;31.23;35.68
23619;BME280;18207;32.078;34.818;2022-12-29T09:32:54;101897.78;;;31.07;35.96
23619;BME280;18207;32.078;34.818;2022-12-29T09:35:24;101896.31;;;30.94;35.84
23619;BME280;18207;32.078;34.818;2022-12-29T09:37:54;101901.03;;;30.86;36.35
23619;BME280;18207;32.078;34.818;2022-12-29T09:40:30;101890.06;;;30.85;36.25
23619;BME280;18207;32.078;34.818;2022-12-29T09:43:37;101886.03;;;30.86;36.67
23619;BME280;18207;32.078;34.818;2022-12-29T09:46:24;101881.03;;;30.79;36.40
23619;BME280;18207;32.078;34.818;2022-12-29T09:49:08;101876.38;;;30.68;35.96
23619;BME280;18207;32.078;34.818;2022-12-29T09:51:47;101877.66;;;30.51;35.84
23619;BME280;18207;32.078;34.818;2022-12-29T09:54:41;101878.47;;;30.33;35.88
23619;BME280;18207;32.078;34.818;2022-12-29T09:57:34;101877.31;;;30.15;35.13
23619;BME280;18207;32.078;34.818;2022-12-29T10:00:12;101879.41;;;29.99;35.62
23619;BME280;18207;32.078;34.818;2022-12-29T10:02:48;101872.94;;;29.83;34.99
23619;BME280;18207;32.078;34.818;2022-12-29T10:05:29;101868.94;;;29.69;35.06
23619;BME280;18207;32.078;34.818;2022-12-29T10:08:22;101856.41;;;29.51;35.02
23619;BME280;18207;32.078;34.818;2022-12-29T10:10:59;101858.44;;;29.35;35.02
23619;BME280;18207;32.078;34.818;2022-12-29T10:13:51;101851.59;;;29.21;35.03
23619;BME280;18207;32.078;34.818;2022-12-29T10:16:37;101854.06;;;29.07;35.50
23619;BME280;18207;32.078;34.818;2022-12-29T10:19:39;101848.44;;;28.91;34.95
23619;BME280;18207;32.078;34.818;2022-12-29T10:22:31;101850.88;;;28.77;35.40
23619;BME280;18207;32.078;34.818;2022-12-29T10:25:14;101840.81;;;28.64;35.30
23619;BME280;18207;32.078;34.818;2022-12-29T10:27:49;101842.16;;;28.55;35.00
23619;BME280;18207;32.078;34.818;2022-12-29T10:30:22;101844.34;;;28.46;35.00
23619;BME280;18207;32.078;34.818;2022-12-29T10:32:58;101842.88;;;28.37;34.97
23619;BME280;18207;32.078;34.818;2022-12-29T10:35:34;101838.56;;;28.27;35.07
23619;BME280;18207;32.078;34.818;2022-12-29T10:38:17;101838.25;;;28.17;34.94
23619;BME280;18207;32.078;34.818;2022-12-29T10:40:58;101830.28;;;28.07;35.42
23619;BME280;18207;32.078;34.818;2022-12-29T10:43:33;101829.97;;;27.96;34.99
23619;BME280;18207;32.078;34.818;2022-12-29T10:46:14;101833.31;;;27.86;35.20
23619;BME280;18207;32.078;34.818;2022-12-29T10:48:45;101819.59;;;27.73;35.28
23619;BME280;18207;32.078;34.818;2022-12-29T10:51:22;101829.72;;;27.62;35.28
23619;BME280;18207;32.078;34.818;2022-12-29T10:54:00;101806.81;;;27.52;35.06
23619;BME280;18207;32.078;34.818;2022-12-29T10:56:37;101809.28;;;27.41;35.35
23619;BME280;18207;32.078;34.818;2022-12-29T10:59:19;101812.25;;;27.33;35.41
23619;BME280;18207;32.078;34.818;2022-12-29T11:02:00;101807.09;;;27.23;35.20
23619;BME280;18207;32.078;34.818;2022-12-29T11:04:53;101801.94;;;27.13;35.39
23619;BME280;18207;32.078;34.818;2022-12-29T11:07:24;101800.06;;;27.05;35.57
23619;BME280;18207;32.078;34.818;2022-12-29T11:09:55;101800.25;;;27.00;35.55
23619;BME280;18207;32.078;34.818;2022-12-29T11:12:57;101792.38;;;26.93;35.64
23619;BME280;18207;32.078;34.818;2022-12-29T11:15:38;101796.63;;;26.87;35.49
23619;BME280;18207;32.078;34.818;2022-12-29T11:18:22;101794.88;;;26.83;35.74
23619;BME280;18207;32.078;34.818;2022-12-29T11:20:55;101789.81;;;26.77;35.55
23619;BME280;18207;32.078;34.818;2022-12-29T11:23:33;101795.22;;;26.70;35.79
23619;BME280;18207;32.078;34.818;2022-12-29T11:26:14;101789.34;;;26.63;35.82
23619;BME280;18207;32.078;34.818;2022-12-29T11:28:47;101789.09;;;26.56;35.87
23619;BME280;18207;32.078;34.818;2022-12-29T11:31:41;101794.13;;;26.50;35.90
23619;BME280;18207;32.078;34.818;2022-12-29T11:34:20;101795.56;;;26.44;35.83
23619;BME280;18207;32.078;34.818;2022-12-29T11:37:00;101791.13;;;26.35;36.09
23619;BME280;18207;32.078;34.818;2022-12-29T11:39:37;101792.06;;;26.27;36.01
23619;BME280;18207;32.078;34.818;2022-12-29T11:42:15;101795.00;;;26.18;36.21
23619;BME280;18207;32.078;34.818;2022-12-29T11:44:49;101784.63;;;26.10;36.19
23619;BME280;18207;32.078;34.818;2022-12-29T11:47:28;101788.38;;;26.02;36.00
23619;BME280;18207;32.078;34.818;2022-12-29T11:50:06;101796.56;;;25.96;36.09
23619;BME280;18207;32.078;34.818;2022-12-29T11:52:38;101788.19;;;25.87;36.25
23619;BME280;18207;32.078;34.818;2022-12-29T11:55:19;101786.41;;;25.83;36.51
23619;BME280;18207;32.078;34.818;2022-12-29T11:57:52;101789.47;;;25.78;36.43
23619;BME280;18207;32.078;34.818;2022-12-29T12:00:27;101799.72;;;25.74;36.68
23619;BME280;18207;32.078;34.818;2022-12-29T12:03:02;101789.84;;;25.68;36.23
23619;BME280;18207;32.078;34.818;2022-12-29T12:05:44;101794.03;;;25.62;36.43
23619;BME280;18207;32.078;34.818;2022-12-29T12:08:33;101797.38;;;25.55;36.36
23619;BME280;18207;32.078;34.818;2022-12-29T12:11:11;101797.25;;;25.52;36.70
23619;BME280;18207;32.078;34.818;2022-12-29T12:13:55;101789.84;;;25.47;36.75
23619;BME280;18207;32.078;34.818;2022-12-29T12:16:36;101795.34;;;25.44;36.69
23619;BME280;18207;32.078;34.818;2022-12-29T12:19:20;101795.88;;;25.37;36.72
23619;BME280;18207;32.078;34.818;2022-12-29T12:22:03;101803.38;;;25.33;36.72
23619;BME280;18207;32.078;34.818;2022-12-29T12:24:44;101805.22;;;25.29;36.78
23619;BME280;18207;32.078;34.818;2022-12-29T12:27:22;101800.97;;;25.23;37.11
23619;BME280;18207;32.078;34.818;2022-12-29T12:30:03;101800.50;;;25.21;36.94
23619;BME280;18207;32.078;34.818;2022-12-29T12:32:46;101798.69;;;25.17;36.88
23619;BME280;18207;32.078;34.818;2022-12-29T12:35:29;101794.91;;;25.13;36.89
23619;BME280;18207;32.078;34.818;2022-12-29T12:38:20;101802.06;;;25.10;36.89
23619;BME280;18207;32.078;34.818;2022-12-29T12:41:07;101792.28;;;25.08;37.36
23619;BME280;18207;32.078;34.818;2022-12-29T12:43:50;101797.41;;;25.06;37.19
23619;BME280;18207;32.078;34.818;2022-12-29T12:46:51;101802.56;;;25.04;37.28
23619;BME280;18207;32.078;34.818;2022-12-29T12:50:25;101798.63;;;24.97;37.21
23619;BME280;18207;32.078;34.818;2022-12-29T12:53:36;101800.81;;;24.91;37.25
23619;BME280;18207;32.078;34.818;2022-12-29T12:56:40;101805.13;;;24.89;37.35
23619;BME280;18207;32.078;34.818;2022-12-29T12:59:32;101803.00;;;24.86;37.48
23619;BME280;18207;32.078;34.818;2022-12-29T13:02:22;101801.69;;;24.83;37.43
23619;BME280;18207;32.078;34.818;2022-12-29T13:05:24;101798.22;;;24.78;37.37
23619;BME280;18207;32.078;34.818;2022-12-29T13:08:25;101796.78;;;24.72;37.36
23619;BME280;18207;32.078;34.818;2022-12-29T13:11:14;101795.00;;;24.67;37.58
23619;BME280;18207;32.078;34.818;2022-12-29T13:14:11;101797.00;;;24.67;37.62
23619;BME280;18207;32.078;34.818;2022-12-29T13:16:53;101794.00;;;24.63;37.64
23619;BME280;18207;32.078;34.818;2022-12-29T13:19:36;101799.47;;;24.60;37.71
23619;BME280;18207;32.078;34.818;2022-12-29T13:22:19;101805.44;;;24.58;37.79
23619;BME280;18207;32.078;34.818;2022-12-29T13:25:17;101804.97;;;24.56;37.71
23619;BME280;18207;32.078;34.818;2022-12-29T13:28:01;101800.34;;;24.52;37.77
23619;BME280;18207;32.078;34.818;2022-12-29T13:30:45;101808.28;;;24.50;37.89
23619;BME280;18207;32.078;34.818;2022-12-29T13:33:31;101806.63;;;24.49;37.79
23619;BME280;18207;32.078;34.818;2022-12-29T13:36:11;101804.16;;;24.47;37.99